createdAt,value
2019-02-17T00:02:48.194Z,64.00
2019-02-17T00:06:59.254Z,64.60
2019-02-17T00:11:10.302Z,64.60
2019-02-17T00:15:21.533Z,64.60
2019-02-17T00:19:32.735Z,64.60
2019-02-17T00:23:43.837Z,64.70
2019-02-17T00:27:54.936Z,64.90
2019-02-17T00:32:06.208Z,66.10
2019-02-17T00:36:17.481Z,66.30
2019-02-17T00:40:28.944Z,66.10
2019-02-17T00:44:40.755Z,66.30
2019-02-17T00:48:52.187Z,66.20
2019-02-17T00:53:03.828Z,66.60
2019-02-17T00:57:15.144Z,66.40
2019-02-17T01:01:26.805Z,66.80
2019-02-17T01:05:38.070Z,66.90
2019-02-17T01:09:49.101Z,67.00
2019-02-17T01:14:00.188Z,67.20
2019-02-17T01:18:11.167Z,68.10
2019-02-17T01:22:23.278Z,67.40
2019-02-17T01:26:35.836Z,68.50
2019-02-17T01:30:46.892Z,69.20
2019-02-17T01:34:56.994Z,69.70
2019-02-17T01:39:08.386Z,70.00
2019-02-17T01:43:19.429Z,70.40
2019-02-17T01:47:30.547Z,71.00
2019-02-17T01:51:41.536Z,69.90
2019-02-17T01:55:52.647Z,70.40
2019-02-17T02:00:05.110Z,70.50
2019-02-17T02:04:16.129Z,70.30
2019-02-17T02:08:27.145Z,70.40
2019-02-17T02:12:37.162Z,70.40
2019-02-17T02:16:48.139Z,70.40
2019-02-17T02:20:59.164Z,70.80
2019-02-17T02:25:12.351Z,70.70
2019-02-17T02:29:26.023Z,70.80
2019-02-17T02:33:37.036Z,71.00
2019-02-17T02:37:48.024Z,71.30
2019-02-17T02:41:59.596Z,72.10
2019-02-17T02:46:10.623Z,72.50
2019-02-17T02:50:21.620Z,73.70
2019-02-17T02:54:32.634Z,73.50
2019-02-17T02:58:43.748Z,73.50
2019-02-17T03:02:54.790Z,73.30
2019-02-17T03:07:05.782Z,73.20
2019-02-17T03:11:16.874Z,73.90
2019-02-17T03:15:27.960Z,73.20
2019-02-17T03:19:40.623Z,73.80
2019-02-17T03:23:51.695Z,74.10
2019-02-17T03:28:02.989Z,74.50
2019-02-17T03:32:13.978Z,74.70
2019-02-17T03:36:24.955Z,75.10
2019-02-17T03:40:36.007Z,75.00
2019-02-17T03:44:47.068Z,75.00
2019-02-17T03:48:58.065Z,75.00
2019-02-17T03:53:09.099Z,75.50
2019-02-17T03:57:20.105Z,75.10
2019-02-17T04:01:31.116Z,75.00
2019-02-17T04:05:42.136Z,75.30
2019-02-17T04:09:53.307Z,75.50
2019-02-17T04:14:04.383Z,75.60
2019-02-17T04:18:15.421Z,75.70
2019-02-17T04:22:26.636Z,75.60
2019-02-17T04:26:37.726Z,75.50
2019-02-17T04:30:49.264Z,75.60
2019-02-17T04:35:00.276Z,75.80
2019-02-17T04:39:11.275Z,76.10
2019-02-17T04:43:22.303Z,76.30
2019-02-17T04:47:33.302Z,76.50
2019-02-17T04:51:44.641Z,76.50
2019-02-17T04:55:56.420Z,76.60
2019-02-17T05:00:09.539Z,77.00
2019-02-17T05:04:21.567Z,77.20
2019-02-17T05:08:32.527Z,77.50
2019-02-17T05:12:43.526Z,78.50
2019-02-17T05:16:55.773Z,79.00
2019-02-17T05:21:06.779Z,79.10
2019-02-17T05:25:18.383Z,78.70
2019-02-17T05:29:29.360Z,80.30
2019-02-17T05:33:40.364Z,79.80
2019-02-17T05:37:51.364Z,79.90
2019-02-17T05:42:02.367Z,80.20
2019-02-17T05:46:13.457Z,80.40
2019-02-17T05:50:26.323Z,80.40
2019-02-17T05:54:37.327Z,80.40
2019-02-17T05:58:48.412Z,80.40
2019-02-17T06:02:59.504Z,80.30
2019-02-17T06:07:12.132Z,80.30
2019-02-17T06:11:23.267Z,80.40
2019-02-17T06:15:34.901Z,80.60
2019-02-17T06:19:45.894Z,80.60
2019-02-17T06:23:56.979Z,80.80
2019-02-17T06:28:08.095Z,80.90
2019-02-17T06:32:19.174Z,81.40
2019-02-17T06:36:30.178Z,81.50
2019-02-17T06:40:41.271Z,81.50
2019-02-17T06:44:53.786Z,81.60
2019-02-17T06:49:04.780Z,81.80
2019-02-17T06:53:15.788Z,81.80
2019-02-17T06:57:28.433Z,81.80
2019-02-17T07:01:42.251Z,81.60
2019-02-17T07:05:53.929Z,81.60
2019-02-17T07:10:05.720Z,81.60
2019-02-17T07:14:16.702Z,81.50
2019-02-17T07:18:27.826Z,81.20
2019-02-17T07:22:38.688Z,80.90
2019-02-17T07:26:49.787Z,80.90
2019-02-17T07:31:00.788Z,80.40
2019-02-17T07:35:11.791Z,80.30
2019-02-17T07:39:23.445Z,79.90
2019-02-17T07:43:35.110Z,79.50
2019-02-17T07:47:46.199Z,79.10
2019-02-17T07:51:58.891Z,78.30
2019-02-17T07:56:09.907Z,76.90
2019-02-17T08:00:20.898Z,74.70
2019-02-17T08:04:31.894Z,71.20
2019-02-17T08:08:42.996Z,69.10
2019-02-17T08:12:54.012Z,67.70
2019-02-17T08:17:06.034Z,66.70
2019-02-17T08:21:17.024Z,65.90
2019-02-17T08:25:29.539Z,64.70
2019-02-17T08:29:40.643Z,63.90
2019-02-17T08:33:51.650Z,62.40
2019-02-17T08:38:03.493Z,61.20
2019-02-17T08:42:14.697Z,60.20
2019-02-17T08:46:25.700Z,59.20
2019-02-17T08:50:38.145Z,58.10
2019-02-17T08:54:49.226Z,56.80
2019-02-17T08:59:00.244Z,56.10
2019-02-17T09:03:11.269Z,55.70
2019-02-17T09:07:24.946Z,55.00
2019-02-17T09:11:36.191Z,54.50
2019-02-17T09:15:47.336Z,53.40
2019-02-17T09:19:58.457Z,52.30
2019-02-17T09:24:09.737Z,51.80
2019-02-17T09:28:20.807Z,53.30
2019-02-17T09:32:32.134Z,51.20
2019-02-17T09:36:43.168Z,49.20
2019-02-17T09:40:54.171Z,47.40
2019-02-17T09:45:14.173Z,47.90
2019-02-17T09:49:25.250Z,48.50
2019-02-17T09:53:36.312Z,47.50
2019-02-17T09:57:47.402Z,47.70
2019-02-17T10:01:58.557Z,48.30
2019-02-17T10:06:09.557Z,47.80
2019-02-17T10:10:21.245Z,47.20
2019-02-17T10:14:32.540Z,47.50
2019-02-17T10:18:43.541Z,46.10
2019-02-17T10:22:55.738Z,44.40
2019-02-17T10:27:06.838Z,43.70
2019-02-17T10:31:17.830Z,43.30
2019-02-17T10:35:28.844Z,43.20
2019-02-17T10:39:39.826Z,43.40
2019-02-17T10:43:50.831Z,44.30
2019-02-17T10:48:01.832Z,43.40
2019-02-17T10:52:12.823Z,41.90
2019-02-17T10:56:23.840Z,40.70
2019-02-17T11:00:36.294Z,39.90
2019-02-17T11:04:48.431Z,39.60
2019-02-17T11:08:59.445Z,39.80
2019-02-17T11:13:10.588Z,37.90
2019-02-17T11:17:21.593Z,35.50
2019-02-17T11:21:32.580Z,33.30
2019-02-17T11:25:43.604Z,32.00
2019-02-17T11:29:54.826Z,30.40
2019-02-17T11:34:06.212Z,31.00
2019-02-17T11:38:17.019Z,29.80
2019-02-17T11:42:28.126Z,29.60
2019-02-17T11:46:39.110Z,29.60
2019-02-17T19:46:55.104Z,56.80
2019-02-17T19:51:06.287Z,49.10
2019-02-17T19:55:18.484Z,44.60
2019-02-17T19:59:31.234Z,42.10
2019-02-17T20:03:47.581Z,40.40
2019-02-17T20:07:58.561Z,39.40
2019-02-17T20:12:09.598Z,38.50
2019-02-17T20:16:22.508Z,37.80
2019-02-17T20:20:33.703Z,38.10
2019-02-17T20:24:46.319Z,37.00
2019-02-17T20:28:58.811Z,36.60
2019-02-17T20:33:11.469Z,36.30
2019-02-17T20:37:27.475Z,36.00
2019-02-17T20:41:39.936Z,35.90
2019-02-17T20:45:51.185Z,35.60
2019-02-17T20:50:05.669Z,35.50
2019-02-17T20:54:16.760Z,35.20
2019-02-17T20:58:27.750Z,35.10
2019-02-17T21:02:38.735Z,35.00
2019-02-17T21:06:49.730Z,34.90
2019-02-17T21:11:00.915Z,34.90
2019-02-17T21:15:16.464Z,34.60
2019-02-17T21:19:27.584Z,34.60
2019-02-17T21:23:40.482Z,34.40
2019-02-17T21:27:51.583Z,34.30
2019-02-17T21:32:02.648Z,34.30
2019-02-17T21:36:22.905Z,34.20
2019-02-17T21:40:29.379Z,34.30
2019-02-17T21:44:40.380Z,34.30
2019-02-17T21:48:52.132Z,34.30
2019-02-17T21:53:04.674Z,34.30
2019-02-17T21:57:17.302Z,34.20
2019-02-17T22:01:29.555Z,34.20
2019-02-17T22:05:40.545Z,34.20
2019-02-17T22:09:51.767Z,34.20
2019-02-17T22:14:05.387Z,34.20
2019-02-17T22:18:17.208Z,34.20
2019-02-17T22:22:29.897Z,34.20
2019-02-17T22:26:41.429Z,34.20
2019-02-17T22:30:52.423Z,34.10
2019-02-17T22:35:05.055Z,34.10
2019-02-17T22:39:18.564Z,34.10
2019-02-17T22:43:29.561Z,34.10
2019-02-17T22:47:40.896Z,34.10
2019-02-17T22:51:52.307Z,34.10
2019-02-17T22:56:03.933Z,34.10
2019-02-17T23:00:19.396Z,34.10
2019-02-17T23:04:31.545Z,34.10
2019-02-17T23:08:42.644Z,34.10
2019-02-17T23:12:53.644Z,34.10
2019-02-17T23:17:05.698Z,34.10
2019-02-17T23:21:16.701Z,34.10
2019-02-17T23:25:29.327Z,34.10
2019-02-17T23:29:40.306Z,34.10
2019-02-17T23:33:53.284Z,34.10
2019-02-17T23:38:04.283Z,34.10
2019-02-17T23:42:15.299Z,34.10
2019-02-17T23:46:26.487Z,34.00
2019-02-17T23:50:37.600Z,34.00
2019-02-17T23:54:50.097Z,34.00
2019-02-17T23:59:01.395Z,34.00
